createdAt,value
2023-04-29T00:05:01.365Z,11.60
2023-04-29T00:10:08.254Z,11.80
2023-04-29T00:15:12.741Z,10.15
2023-04-29T00:20:17.771Z,10.88
2023-04-29T00:25:23.205Z,11.33
2023-04-29T00:30:27.304Z,12.73
2023-04-29T00:35:31.427Z,13.35
2023-04-29T00:40:37.417Z,10.80
2023-04-29T00:50:45.176Z,7.20
2023-04-29T00:55:53.012Z,9.00
2023-04-29T01:00:57.349Z,8.70
2023-04-29T01:06:14.094Z,8.35
2023-04-29T01:11:24.768Z,8.95
2023-04-29T01:16:36.067Z,7.80
2023-04-29T01:21:48.783Z,7.45
2023-04-29T01:27:00.918Z,7.38
2023-04-29T01:32:27.607Z,6.70
2023-04-29T01:37:41.398Z,6.75
2023-04-29T01:42:49.789Z,6.22
2023-04-29T01:47:57.192Z,6.18
2023-04-29T01:53:02.682Z,6.40
2023-04-29T01:58:08.565Z,5.30
2023-04-29T02:03:31.774Z,5.45
2023-04-29T02:08:37.786Z,5.40
2023-04-29T02:13:43.559Z,6.80
2023-04-29T02:18:49.349Z,7.80
2023-04-29T02:23:54.538Z,7.90
2023-04-29T02:29:03.892Z,6.47
2023-04-29T02:34:07.909Z,6.55
2023-04-29T02:39:11.998Z,7.00
2023-04-29T02:44:17.952Z,8.88
2023-04-29T02:49:21.870Z,7.97
2023-04-29T02:54:27.521Z,9.23
2023-04-29T02:59:33.086Z,8.48
2023-04-29T03:04:40.686Z,10.15
2023-04-29T03:09:45.996Z,10.32
2023-04-29T03:14:51.951Z,11.70
2023-04-29T03:19:56.054Z,10.85
2023-04-29T03:25:00.128Z,10.48
2023-04-29T03:30:07.471Z,10.23
2023-04-29T03:35:15.526Z,10.25
2023-04-29T03:40:42.542Z,8.70
2023-04-29T03:45:48.298Z,10.35
2023-04-29T03:50:55.884Z,9.50
2023-04-29T03:56:00.476Z,10.40
2023-04-29T04:01:06.108Z,10.68
2023-04-29T04:06:17.292Z,10.88
2023-04-29T04:11:22.005Z,11.23
2023-04-29T04:16:33.813Z,11.30
2023-04-29T04:21:39.104Z,9.75
2023-04-29T04:26:45.813Z,10.50
2023-04-29T04:31:59.826Z,9.90
2023-04-29T04:42:09.521Z,9.25
2023-04-29T04:47:18.890Z,9.25
2023-04-29T04:52:28.354Z,8.80
2023-04-29T04:57:57.498Z,9.57
2023-04-29T05:03:03.791Z,9.60
2023-04-29T05:08:09.028Z,8.80
2023-04-29T05:13:18.989Z,8.07
2023-04-29T05:18:25.681Z,9.27
2023-04-29T05:23:30.290Z,8.48
2023-04-29T05:28:34.408Z,8.35
2023-04-29T05:33:43.158Z,7.72
2023-04-29T05:38:47.531Z,7.18
2023-04-29T05:43:51.682Z,6.43
2023-04-29T05:48:57.247Z,9.00
2023-04-29T05:54:02.904Z,7.25
2023-04-29T05:59:08.516Z,6.50
2023-04-29T06:04:14.304Z,7.43
2023-04-29T06:09:37.467Z,6.65
2023-04-29T06:14:41.650Z,7.45
2023-04-29T06:19:47.738Z,7.32
2023-04-29T06:24:52.736Z,6.95
2023-04-29T06:30:24.554Z,6.85
2023-04-29T06:35:30.377Z,7.03
2023-04-29T06:40:51.213Z,5.97
2023-04-29T06:46:21.777Z,6.22
2023-04-29T06:51:37.073Z,4.68
2023-04-29T06:56:41.055Z,4.50
2023-04-29T07:01:47.070Z,10.15
2023-04-29T07:06:54.269Z,5.10
2023-04-29T07:11:58.454Z,4.28
2023-04-29T07:17:02.503Z,5.00
2023-04-29T07:22:09.180Z,4.78
2023-04-29T07:27:13.316Z,5.15
2023-04-29T07:32:17.328Z,6.18
2023-04-29T07:37:22.577Z,6.32
2023-04-29T07:42:27.439Z,5.03
2023-04-29T07:47:31.477Z,5.93
2023-04-29T07:52:37.323Z,5.15
2023-04-29T07:57:41.357Z,4.38
2023-04-29T08:02:45.670Z,5.25
2023-04-29T08:07:53.708Z,3.78
2023-04-29T08:18:03.351Z,4.40
2023-04-29T08:23:09.297Z,4.43
2023-04-29T08:33:17.337Z,4.55
2023-04-29T08:38:23.297Z,5.47
2023-04-29T08:48:32.174Z,4.70
2023-04-29T08:53:37.488Z,3.92
2023-04-29T08:58:43.376Z,4.18
2023-04-29T09:03:55.527Z,4.20
2023-04-29T09:09:04.490Z,3.78
2023-04-29T09:14:09.662Z,4.30
2023-04-29T09:19:32.164Z,4.13
2023-04-29T09:24:38.137Z,3.97
2023-04-29T09:30:02.493Z,4.43
2023-04-29T09:35:24.981Z,4.00
2023-04-29T09:40:31.982Z,4.13
2023-04-29T09:45:37.028Z,4.00
2023-04-29T09:50:43.747Z,4.22
2023-04-29T09:56:02.730Z,4.10
2023-04-29T10:01:08.641Z,3.75
2023-04-29T10:06:14.065Z,3.80
2023-04-29T10:11:19.728Z,4.18
2023-04-29T10:16:30.770Z,4.15
2023-04-29T10:21:35.512Z,4.18
2023-04-29T10:26:43.200Z,3.88
2023-04-29T10:31:50.178Z,4.05
2023-04-29T10:36:54.735Z,4.32
2023-04-29T10:42:03.425Z,3.80
2023-04-29T10:47:23.035Z,4.20
2023-04-29T10:52:28.953Z,3.72
2023-04-29T10:57:34.400Z,3.95
2023-04-29T11:02:38.810Z,3.97
2023-04-29T11:07:44.543Z,3.60
2023-04-29T11:12:50.342Z,5.63
2023-04-29T11:17:54.509Z,3.80
2023-04-29T11:22:58.907Z,3.80
2023-04-29T11:28:05.390Z,3.92
2023-04-29T11:33:10.533Z,3.42
2023-04-29T11:38:14.875Z,3.60
2023-04-29T11:43:21.059Z,3.45
2023-04-29T11:48:27.091Z,3.47
2023-04-29T11:53:31.658Z,4.00
2023-04-29T11:58:37.414Z,3.70
2023-04-29T12:03:41.827Z,3.38
2023-04-29T12:08:48.311Z,3.67
2023-04-29T12:13:54.088Z,3.60
2023-04-29T12:18:59.016Z,3.30
2023-04-29T12:24:04.730Z,3.75
2023-04-29T12:29:11.866Z,3.45
2023-04-29T12:34:16.521Z,3.22
2023-04-29T12:39:21.344Z,4.45
2023-04-29T12:44:27.242Z,3.73
2023-04-29T12:49:38.368Z,3.33
2023-04-29T12:54:43.942Z,3.50
2023-04-29T12:59:49.931Z,3.50
2023-04-29T13:04:54.647Z,3.42
2023-04-29T13:09:58.884Z,3.30
2023-04-29T13:15:04.720Z,3.47
2023-04-29T13:20:11.229Z,2.90
2023-04-29T13:25:16.412Z,3.22
2023-04-29T13:35:25.966Z,3.10
2023-04-29T13:40:30.845Z,4.60
2023-04-29T13:45:39.888Z,3.35
2023-04-29T14:01:37.740Z,3.70
2023-04-29T14:06:31.024Z,3.30
2023-04-29T14:11:37.024Z,4.05
2023-04-29T14:16:46.004Z,3.20
2023-04-29T14:21:54.983Z,3.05
2023-04-29T14:26:59.263Z,3.53
2023-04-29T14:32:05.048Z,3.13
2023-04-29T14:37:09.098Z,3.30
2023-04-29T14:42:15.132Z,3.63
2023-04-29T14:47:20.421Z,3.47
2023-04-29T14:52:24.463Z,3.50
2023-04-29T14:57:32.339Z,3.67
2023-04-29T15:02:37.701Z,3.13
2023-04-29T15:07:41.729Z,3.60
2023-04-29T15:12:45.671Z,3.53
2023-04-29T15:17:51.342Z,3.00
2023-04-29T15:22:55.884Z,3.55
2023-04-29T15:28:00.770Z,3.87
2023-04-29T15:33:06.395Z,3.77
2023-04-29T15:38:10.689Z,3.42
2023-04-29T15:43:15.223Z,3.85
2023-04-29T15:48:20.914Z,4.07
2023-04-29T15:53:26.523Z,3.50
2023-04-29T15:58:30.625Z,3.60
2023-04-29T16:03:36.331Z,8.35
2023-04-29T16:08:40.597Z,4.00
2023-04-29T16:13:44.684Z,4.70
2023-04-29T16:18:50.331Z,5.63
2023-04-29T16:28:58.579Z,7.35
2023-04-29T16:34:04.019Z,4.65
2023-04-29T16:39:08.800Z,6.18
2023-04-29T16:44:12.918Z,6.77
2023-04-29T16:49:25.600Z,6.45
2023-04-29T16:54:29.809Z,4.65
2023-04-29T16:59:34.013Z,5.88
2023-04-29T17:04:39.560Z,6.32
2023-04-29T17:09:44.476Z,5.68
2023-04-29T17:14:49.768Z,5.20
2023-04-29T17:19:55.613Z,5.25
2023-04-29T17:25:00.166Z,6.40
2023-04-29T17:30:06.256Z,6.32
2023-04-29T17:35:12.233Z,7.35
2023-04-29T17:40:16.457Z,7.95
2023-04-29T17:45:20.569Z,10.38
2023-04-29T17:50:26.437Z,8.13
2023-04-29T17:55:31.054Z,7.70
2023-04-29T18:00:35.768Z,9.50
2023-04-29T18:05:41.165Z,8.95
2023-04-29T18:10:46.682Z,9.55
2023-04-29T18:15:51.448Z,10.37
2023-04-29T18:20:57.200Z,9.73
2023-04-29T18:26:01.555Z,13.52
2023-04-29T18:31:06.171Z,11.35
2023-04-29T18:36:14.885Z,12.15
2023-04-29T18:41:19.087Z,11.45
2023-04-29T18:46:23.494Z,15.10
2023-04-29T18:51:29.331Z,15.23
2023-04-29T18:56:33.493Z,18.02
2023-04-29T19:01:38.119Z,16.80
2023-04-29T19:06:43.717Z,19.73
2023-04-29T19:11:47.998Z,19.20
2023-04-29T19:16:52.125Z,19.35
2023-04-29T19:21:57.948Z,14.25
2023-04-29T19:27:02.055Z,15.10
2023-04-29T19:32:20.479Z,15.70
2023-04-29T19:37:26.235Z,16.75
2023-04-29T19:47:34.922Z,26.35
2023-04-29T19:52:40.666Z,26.50
2023-04-29T20:02:50.896Z,23.75
2023-04-29T20:07:56.394Z,25.90
2023-04-29T20:13:01.126Z,29.58
2023-04-29T20:18:05.527Z,26.00
2023-04-29T20:23:10.896Z,26.98
2023-04-29T20:28:14.922Z,25.58
2023-04-29T20:33:20.027Z,21.80
2023-04-29T20:38:25.913Z,19.33
2023-04-29T20:43:31.547Z,26.05
2023-04-29T20:48:35.471Z,23.95
2023-04-29T20:53:40.961Z,24.60
2023-04-29T20:58:44.895Z,24.42
2023-04-29T21:03:49.128Z,21.50
2023-04-29T21:08:54.399Z,22.17
2023-04-29T21:13:58.646Z,21.60
2023-04-29T21:19:02.954Z,19.98
2023-04-29T21:24:08.440Z,19.05
2023-04-29T21:29:12.399Z,18.85
2023-04-29T21:34:16.350Z,14.48
2023-04-29T21:39:22.303Z,14.30
2023-04-29T21:44:26.483Z,12.07
2023-04-29T21:49:30.675Z,13.25
2023-04-29T21:54:35.987Z,13.10
2023-04-29T21:59:39.912Z,13.25
2023-04-29T22:04:43.904Z,14.40
2023-04-29T22:09:50.615Z,15.25
2023-04-29T22:14:54.666Z,15.70
2023-04-29T22:19:58.622Z,14.15
2023-04-29T22:25:04.741Z,14.30
2023-04-29T22:30:09.994Z,14.77
2023-04-29T22:35:14.183Z,12.63
2023-04-29T22:40:19.789Z,11.73
2023-04-29T22:45:23.677Z,11.18
2023-04-29T22:50:27.587Z,13.13
2023-04-29T22:55:34.104Z,13.07
2023-04-29T23:00:38.259Z,13.13
2023-04-29T23:05:42.315Z,13.73
2023-04-29T23:10:50.624Z,14.13
2023-04-29T23:15:57.546Z,14.25
2023-04-29T23:21:01.698Z,14.32
2023-04-29T23:26:07.131Z,14.18
2023-04-29T23:31:11.080Z,16.35
2023-04-29T23:36:15.045Z,14.98
2023-04-29T23:41:20.895Z,14.45
2023-04-29T23:51:29.592Z,13.15
2023-04-29T23:56:34.880Z,17.17
